createdAt,value
2023-04-06T00:00:38.708Z,6.77
2023-04-06T00:03:25.138Z,7.13
2023-04-06T00:06:11.710Z,7.37
2023-04-06T00:08:58.409Z,6.43
2023-04-06T00:11:44.659Z,7.07
2023-04-06T00:14:31.441Z,6.60
2023-04-06T00:17:18.205Z,7.43
2023-04-06T00:20:05.564Z,5.87
2023-04-06T00:22:52.021Z,6.67
2023-04-06T00:25:38.369Z,6.90
2023-04-06T00:28:30.824Z,6.40
2023-04-06T00:31:17.074Z,6.33
2023-04-06T00:34:03.418Z,7.63
2023-04-06T00:36:49.845Z,6.53
2023-04-06T00:39:36.111Z,6.70
2023-04-06T00:42:27.132Z,6.07
2023-04-06T00:45:13.921Z,7.70
2023-04-06T00:48:02.829Z,7.67
2023-04-06T00:50:49.243Z,7.10
2023-04-06T00:53:36.197Z,6.80
2023-04-06T00:56:27.165Z,7.10
2023-04-06T00:59:14.397Z,6.40
2023-04-06T01:02:01.840Z,6.60
2023-04-06T01:04:57.460Z,6.57
2023-04-06T01:07:53.699Z,6.17
2023-04-06T01:10:47.595Z,6.80
2023-04-06T01:13:49.006Z,6.83
2023-04-06T01:16:44.654Z,6.10
2023-04-06T01:19:37.658Z,7.37
2023-04-06T01:22:26.114Z,8.50
2023-04-06T01:25:18.915Z,6.07
2023-04-06T01:28:21.905Z,6.03
2023-04-06T01:31:27.478Z,6.80
2023-04-06T01:34:14.257Z,6.20
2023-04-06T01:37:01.792Z,5.60
2023-04-06T01:39:51.507Z,7.03
2023-04-06T01:42:47.461Z,6.00
2023-04-06T01:45:41.015Z,6.10
2023-04-06T01:48:35.034Z,5.93
2023-04-06T01:51:29.760Z,6.53
2023-04-06T01:54:19.520Z,6.80
2023-04-06T01:57:24.681Z,5.93
2023-04-06T02:00:18.592Z,6.43
2023-04-06T02:03:12.258Z,6.40
2023-04-06T02:05:59.977Z,6.53
2023-04-06T02:08:52.714Z,6.87
2023-04-06T02:11:40.017Z,6.60
2023-04-06T02:14:27.358Z,6.87
2023-04-06T02:17:17.468Z,7.27
2023-04-06T02:20:04.431Z,6.80
2023-04-06T02:22:51.111Z,7.73
2023-04-06T02:25:37.710Z,6.30
2023-04-06T02:28:24.337Z,6.77
2023-04-06T02:31:11.113Z,6.57
2023-04-06T02:33:58.647Z,7.43
2023-04-06T02:36:46.766Z,6.77
2023-04-06T02:39:34.502Z,7.40
2023-04-06T02:42:22.369Z,6.57
2023-04-06T02:45:12.231Z,6.53
2023-04-06T02:48:03.545Z,6.27
2023-04-06T02:50:52.018Z,6.13
2023-04-06T02:53:38.874Z,6.50
2023-04-06T02:56:27.455Z,5.83
2023-04-06T02:59:13.924Z,6.87
2023-04-06T03:02:06.610Z,6.70
2023-04-06T03:04:53.304Z,6.33
2023-04-06T03:07:46.428Z,6.40
2023-04-06T03:10:40.093Z,6.53
2023-04-06T03:13:26.704Z,6.80
2023-04-06T03:16:16.540Z,6.83
2023-04-06T03:19:03.758Z,6.97
2023-04-06T03:21:53.606Z,7.20
2023-04-06T03:24:42.229Z,8.03
2023-04-06T03:27:28.969Z,6.53
2023-04-06T03:30:18.579Z,7.07
2023-04-06T03:33:05.586Z,7.10
2023-04-06T03:35:57.916Z,6.80
2023-04-06T03:38:46.768Z,6.80
2023-04-06T03:41:34.772Z,7.23
2023-04-06T03:44:26.936Z,7.70
2023-04-06T03:47:13.644Z,7.83
2023-04-06T03:50:00.984Z,7.03
2023-04-06T03:52:47.850Z,6.50
2023-04-06T03:55:34.657Z,6.43
2023-04-06T03:58:21.093Z,6.67
2023-04-06T04:01:07.762Z,6.63
2023-04-06T04:03:54.910Z,7.00
2023-04-06T04:06:43.294Z,8.30
2023-04-06T04:09:29.989Z,7.67
2023-04-06T04:12:17.626Z,6.80
2023-04-06T04:15:04.312Z,7.93
2023-04-06T04:17:51.605Z,7.37
2023-04-06T04:20:38.454Z,7.40
2023-04-06T04:23:25.113Z,8.07
2023-04-06T04:26:11.697Z,7.93
2023-04-06T04:28:59.504Z,7.20
2023-04-06T04:31:46.657Z,8.77
2023-04-06T04:34:37.138Z,8.50
2023-04-06T04:37:26.499Z,8.33
2023-04-06T04:40:16.857Z,7.57
2023-04-06T04:43:19.789Z,8.40
2023-04-06T04:46:06.786Z,9.47
2023-04-06T04:49:03.173Z,8.13
2023-04-06T04:51:53.483Z,6.87
2023-04-06T04:54:48.089Z,7.97
2023-04-06T04:57:42.490Z,8.33
2023-04-06T05:00:29.247Z,6.97
2023-04-06T05:03:23.293Z,9.70
2023-04-06T05:06:16.990Z,7.63
2023-04-06T05:09:04.367Z,8.80
2023-04-06T05:11:51.723Z,7.47
2023-04-06T05:14:38.413Z,8.10
2023-04-06T05:17:32.296Z,8.10
2023-04-06T05:20:19.839Z,6.60
2023-04-06T05:23:09.990Z,6.80
2023-04-06T05:25:56.834Z,8.17
2023-04-06T05:28:45.417Z,8.13
2023-04-06T05:31:32.897Z,6.73
2023-04-06T05:34:19.864Z,7.53
2023-04-06T05:37:08.124Z,6.77
2023-04-06T05:39:56.581Z,6.97
2023-04-06T05:42:43.938Z,6.43
2023-04-06T05:45:31.393Z,8.07
2023-04-06T05:48:19.328Z,7.77
2023-04-06T05:51:08.944Z,8.10
2023-04-06T05:54:05.541Z,6.53
2023-04-06T05:56:55.610Z,7.00
2023-04-06T05:59:42.230Z,6.83
2023-04-06T06:02:34.039Z,7.33
2023-04-06T06:05:20.742Z,6.33
2023-04-06T06:08:08.804Z,6.27
2023-04-06T06:10:56.116Z,7.00
2023-04-06T06:13:44.032Z,6.67
2023-04-06T06:16:31.124Z,6.30
2023-04-06T06:19:18.713Z,8.03
2023-04-06T06:22:06.144Z,6.37
2023-04-06T06:24:56.479Z,6.43
2023-04-06T06:27:44.375Z,8.20
2023-04-06T06:30:30.976Z,7.07
2023-04-06T06:33:18.036Z,6.30
2023-04-06T06:36:06.017Z,7.10
2023-04-06T06:38:52.886Z,6.70
2023-04-06T06:41:41.350Z,7.10
2023-04-06T06:44:29.329Z,6.40
2023-04-06T06:47:16.053Z,7.23
2023-04-06T06:50:04.651Z,5.90
2023-04-06T06:52:51.428Z,7.00
2023-04-06T06:55:37.706Z,6.87
2023-04-06T06:58:24.454Z,7.30
2023-04-06T07:01:11.158Z,6.97
2023-04-06T07:03:58.278Z,6.17
2023-04-06T07:06:45.028Z,6.87
2023-04-06T07:09:32.080Z,6.40
2023-04-06T07:12:18.528Z,6.53
2023-04-06T07:15:06.070Z,7.83
2023-04-06T07:17:55.613Z,7.00
2023-04-06T07:20:42.442Z,7.43
2023-04-06T07:23:29.552Z,7.77
2023-04-06T07:26:16.237Z,7.30
2023-04-06T07:29:02.961Z,8.23
2023-04-06T07:31:50.453Z,7.77
2023-04-06T07:34:37.328Z,8.20
2023-04-06T07:37:24.332Z,7.77
2023-04-06T07:40:11.024Z,29.57
2023-04-06T07:42:58.718Z,8.70
2023-04-06T07:45:46.384Z,7.33
2023-04-06T07:48:38.573Z,7.00
2023-04-06T07:51:26.583Z,6.80
2023-04-06T07:54:13.327Z,6.67
2023-04-06T07:56:59.756Z,8.03
2023-04-06T07:59:46.606Z,7.97
2023-04-06T08:02:33.212Z,7.97
2023-04-06T08:05:20.377Z,8.03
2023-04-06T08:08:06.843Z,8.27
2023-04-06T08:10:53.366Z,7.53
2023-04-06T08:13:40.869Z,7.47
2023-04-06T08:16:27.599Z,6.83
2023-04-06T08:19:14.219Z,7.47
2023-04-06T08:22:00.949Z,7.37
2023-04-06T08:24:47.767Z,6.60
2023-04-06T08:27:34.263Z,6.90
2023-04-06T08:30:22.023Z,6.60
2023-04-06T08:33:08.542Z,6.47
2023-04-06T08:35:55.461Z,7.83
2023-04-06T08:38:43.939Z,5.63
2023-04-06T08:41:30.690Z,5.57
2023-04-06T08:44:17.815Z,6.63
2023-04-06T08:47:11.632Z,5.83
2023-04-06T08:50:00.594Z,5.37
2023-04-06T08:52:49.370Z,5.87
2023-04-06T08:55:36.839Z,5.23
2023-04-06T08:58:35.157Z,4.27
2023-04-06T09:01:27.480Z,4.60
2023-04-06T09:04:14.867Z,5.03
2023-04-06T09:07:02.599Z,4.47
2023-04-06T09:09:49.135Z,5.47
2023-04-06T09:12:35.980Z,5.37
2023-04-06T09:15:24.738Z,5.37
2023-04-06T09:18:11.566Z,6.27
2023-04-06T09:21:00.399Z,4.93
2023-04-06T09:23:47.169Z,5.23
2023-04-06T09:26:34.875Z,5.87
2023-04-06T09:29:27.958Z,4.57
2023-04-06T09:32:17.988Z,5.97
2023-04-06T09:35:11.194Z,5.50
2023-04-06T09:37:57.976Z,4.97
2023-04-06T09:41:01.183Z,4.07
2023-04-06T09:43:48.133Z,4.53
2023-04-06T09:46:54.958Z,4.43
2023-04-06T09:49:46.879Z,4.70
2023-04-06T09:52:38.426Z,5.10
2023-04-06T09:55:32.135Z,4.97
2023-04-06T09:58:21.807Z,4.83
2023-04-06T10:01:13.189Z,4.40
2023-04-06T10:04:02.866Z,5.37
2023-04-06T10:06:53.313Z,5.37
2023-04-06T10:09:39.762Z,5.80
2023-04-06T10:12:26.464Z,5.40
2023-04-06T10:15:13.334Z,6.00
2023-04-06T10:18:00.606Z,5.67
2023-04-06T10:20:54.395Z,5.87
2023-04-06T10:23:54.863Z,5.80
2023-04-06T10:26:41.463Z,5.93
2023-04-06T10:29:27.984Z,6.00
2023-04-06T10:32:14.640Z,5.27
2023-04-06T10:35:12.493Z,5.73
2023-04-06T10:38:04.302Z,5.43
2023-04-06T10:40:50.826Z,6.20
2023-04-06T10:43:39.021Z,6.27
2023-04-06T10:46:30.763Z,6.17
2023-04-06T10:49:17.081Z,4.77
2023-04-06T10:52:03.495Z,5.70
2023-04-06T10:54:51.165Z,5.43
2023-04-06T10:57:37.926Z,5.73
2023-04-06T11:00:26.134Z,6.23
2023-04-06T11:03:15.896Z,6.07
2023-04-06T11:06:02.612Z,5.33
2023-04-06T11:08:49.555Z,6.03
2023-04-06T11:11:40.928Z,6.57
2023-04-06T11:14:27.604Z,5.70
2023-04-06T11:17:14.782Z,5.70
2023-04-06T11:20:01.580Z,5.93
2023-04-06T11:22:54.509Z,6.30
2023-04-06T11:25:51.431Z,6.87
2023-04-06T11:28:38.606Z,6.23
2023-04-06T11:31:28.798Z,5.90
2023-04-06T11:34:21.686Z,6.63
2023-04-06T11:37:13.065Z,5.77
2023-04-06T11:39:59.552Z,6.33
2023-04-06T11:42:53.346Z,5.87
2023-04-06T11:45:44.157Z,5.97
2023-04-06T11:48:32.022Z,6.13
2023-04-06T11:51:25.093Z,5.87
2023-04-06T11:54:11.532Z,7.03
2023-04-06T11:56:58.094Z,6.53
2023-04-06T11:59:45.264Z,6.30
2023-04-06T12:02:33.349Z,7.10
2023-04-06T12:05:19.933Z,6.23
2023-04-06T12:08:06.461Z,6.57
2023-04-06T12:10:52.771Z,6.47
2023-04-06T12:13:39.470Z,5.97
2023-04-06T12:16:25.887Z,6.97
2023-04-06T12:19:12.494Z,5.90
2023-04-06T12:21:59.132Z,5.80
2023-04-06T12:24:45.385Z,7.57
2023-04-06T12:27:34.442Z,6.17
2023-04-06T12:30:21.077Z,5.87
2023-04-06T12:33:07.673Z,6.87
2023-04-06T12:35:54.287Z,6.73
2023-04-06T12:38:42.088Z,6.30
2023-04-06T12:41:29.323Z,6.17
2023-04-06T12:44:15.960Z,6.13
2023-04-06T12:47:02.568Z,6.10
2023-04-06T12:49:49.426Z,6.83
2023-04-06T12:52:37.609Z,6.37
2023-04-06T12:55:24.377Z,6.27
2023-04-06T12:58:11.334Z,6.60
2023-04-06T13:01:03.771Z,6.30
2023-04-06T13:03:50.802Z,6.50
2023-04-06T13:06:37.398Z,5.97
2023-04-06T13:09:23.938Z,6.07
2023-04-06T13:12:10.422Z,5.87
2023-04-06T13:14:57.764Z,5.43
2023-04-06T13:17:44.343Z,5.47
2023-04-06T13:20:31.060Z,6.53
2023-04-06T13:23:17.632Z,6.10
2023-04-06T13:26:06.450Z,6.13
2023-04-06T13:28:52.799Z,6.07
2023-04-06T13:31:39.869Z,6.13
2023-04-06T13:34:26.456Z,6.60
2023-04-06T13:37:14.305Z,5.90
2023-04-06T13:40:02.528Z,6.77
2023-04-06T13:42:49.211Z,5.80
2023-04-06T13:45:35.868Z,5.50
2023-04-06T13:48:22.556Z,5.83
2023-04-06T13:51:11.229Z,6.47
2023-04-06T13:53:57.720Z,6.00
2023-04-06T13:56:44.123Z,5.47
2023-04-06T13:59:35.013Z,5.97
2023-04-06T14:02:24.015Z,5.13
2023-04-06T14:05:11.033Z,5.60
2023-04-06T14:07:57.570Z,5.93
2023-04-06T14:10:44.165Z,5.83
2023-04-06T14:13:30.668Z,5.80
2023-04-06T14:16:20.391Z,5.97
2023-04-06T14:19:06.874Z,6.57
2023-04-06T14:21:53.164Z,6.30
2023-04-06T14:24:39.842Z,5.60
2023-04-06T14:27:26.196Z,6.47
2023-04-06T14:30:13.372Z,5.87
2023-04-06T14:32:59.914Z,6.13
2023-04-06T14:35:46.421Z,5.40
2023-04-06T14:38:33.379Z,5.83
2023-04-06T14:41:21.206Z,5.40
2023-04-06T14:44:07.793Z,5.00
2023-04-06T14:46:54.191Z,5.23
2023-04-06T14:49:40.764Z,4.87
2023-04-06T14:52:27.035Z,4.40
2023-04-06T14:55:14.929Z,4.30
2023-04-06T14:58:01.330Z,4.70
2023-04-06T15:00:48.692Z,4.50
2023-04-06T15:03:35.365Z,4.77
2023-04-06T15:06:22.486Z,4.80
2023-04-06T15:09:08.715Z,4.70
2023-04-06T15:11:56.516Z,5.27
2023-04-06T15:14:42.832Z,4.53
2023-04-06T15:17:29.024Z,5.23
2023-04-06T15:20:15.593Z,4.80
2023-04-06T15:23:05.195Z,5.10
2023-04-06T15:25:51.716Z,6.13
2023-04-06T15:28:38.272Z,5.87
2023-04-06T15:31:36.647Z,6.40
2023-04-06T15:34:24.230Z,4.33
2023-04-06T15:37:10.488Z,4.50
2023-04-06T15:39:57.892Z,5.10
2023-04-06T15:42:45.577Z,4.77
2023-04-06T15:45:31.877Z,5.73
2023-04-06T15:48:19.205Z,5.83
2023-04-06T15:51:05.883Z,4.27
2023-04-06T15:53:52.059Z,4.80
2023-04-06T15:56:38.306Z,4.17
2023-04-06T15:59:24.615Z,4.30
2023-04-06T16:02:11.062Z,5.13
2023-04-06T16:05:01.298Z,6.00
2023-04-06T16:07:47.743Z,4.00
2023-04-06T16:10:34.121Z,3.33
2023-04-06T16:13:21.492Z,4.47
2023-04-06T16:16:08.559Z,3.53
2023-04-06T16:18:55.035Z,4.20
2023-04-06T16:21:41.678Z,3.80
2023-04-06T16:24:28.710Z,3.93
2023-04-06T16:27:15.720Z,3.20
2023-04-06T16:32:54.360Z,3.03
2023-04-06T16:35:45.481Z,3.10
2023-04-06T16:38:35.583Z,3.47
2023-04-06T16:41:22.587Z,4.00
2023-04-06T16:44:09.235Z,2.80
2023-04-06T16:46:56.519Z,3.67
2023-04-06T16:49:46.478Z,3.17
2023-04-06T16:52:34.102Z,2.83
2023-04-06T16:55:20.823Z,3.07
2023-04-06T16:58:07.398Z,3.33
2023-04-06T17:00:53.843Z,3.20
2023-04-06T17:03:40.593Z,3.87
2023-04-06T17:06:27.840Z,3.07
2023-04-06T17:09:14.346Z,3.60
2023-04-06T17:12:00.571Z,2.83
2023-04-06T17:14:46.960Z,4.00
2023-04-06T17:17:33.509Z,3.50
2023-04-06T17:20:19.984Z,4.70
2023-04-06T17:23:06.709Z,3.70
2023-04-06T17:25:54.659Z,3.50
2023-04-06T17:28:44.214Z,3.70
2023-04-06T17:31:31.257Z,4.10
2023-04-06T17:34:17.757Z,3.20
2023-04-06T17:37:04.359Z,3.90
2023-04-06T17:39:50.899Z,3.57
2023-04-06T17:42:37.573Z,3.30
2023-04-06T17:45:24.112Z,3.90
2023-04-06T17:48:10.536Z,6.97
2023-04-06T17:50:57.423Z,6.30
2023-04-06T17:53:43.906Z,6.30
2023-04-06T17:56:33.606Z,4.70
2023-04-06T18:08:01.293Z,6.37
2023-04-06T18:10:52.865Z,9.00
2023-04-06T18:13:40.333Z,5.90
2023-04-06T18:16:28.329Z,5.57
2023-04-06T18:19:15.223Z,5.83
2023-04-06T18:22:01.528Z,6.90
2023-04-06T18:24:47.925Z,7.50
2023-04-06T18:27:34.680Z,10.83
2023-04-06T18:30:21.024Z,5.00
2023-04-06T18:33:07.818Z,6.13
2023-04-06T18:35:56.600Z,4.10
2023-04-06T18:38:48.137Z,4.03
2023-04-06T18:41:35.463Z,4.77
2023-04-06T18:44:21.773Z,12.37
2023-04-06T18:47:08.283Z,6.33
2023-04-06T18:49:54.893Z,4.87
2023-04-06T18:52:41.855Z,3.10
2023-04-06T18:55:28.586Z,5.37
2023-04-06T18:58:15.097Z,8.73
2023-04-06T19:01:01.733Z,4.30
2023-04-06T19:03:48.662Z,4.03
2023-04-06T19:06:35.430Z,2.10
2023-04-06T19:09:22.011Z,2.53
2023-04-06T19:12:08.459Z,2.30
2023-04-06T19:14:54.584Z,2.27
2023-04-06T19:17:41.180Z,2.37
2023-04-06T19:20:27.823Z,1.93
2023-04-06T19:23:14.007Z,2.50
2023-04-06T19:26:00.693Z,2.37
2023-04-06T19:28:47.588Z,2.27
2023-04-06T19:31:34.000Z,2.17
2023-04-06T19:34:20.472Z,2.47
2023-04-06T19:37:06.795Z,2.30
2023-04-06T19:39:52.945Z,2.57
2023-04-06T19:42:39.877Z,2.47
2023-04-06T19:45:26.349Z,1.87
2023-04-06T19:48:16.587Z,1.67
2023-04-06T19:51:02.966Z,2.27
2023-04-06T19:53:49.330Z,3.27
2023-04-06T19:56:35.560Z,2.97
2023-04-06T19:59:22.090Z,3.40
2023-04-06T20:02:08.675Z,2.30
2023-04-06T20:04:55.242Z,2.27
2023-04-06T20:07:41.867Z,2.57
2023-04-06T20:10:28.619Z,2.70
2023-04-06T20:13:14.859Z,2.57
2023-04-06T20:16:01.158Z,2.33
2023-04-06T20:18:47.472Z,2.23
2023-04-06T20:21:33.695Z,2.50
2023-04-06T20:24:24.025Z,2.47
2023-04-06T20:27:10.619Z,2.53
2023-04-06T20:29:56.891Z,2.33
2023-04-06T20:32:43.303Z,2.63
2023-04-06T20:35:31.174Z,2.23
2023-04-06T20:38:32.268Z,2.97
2023-04-06T20:41:19.780Z,2.50
2023-04-06T20:44:06.287Z,2.57
2023-04-06T20:46:52.889Z,2.13
2023-04-06T20:49:39.490Z,2.80
2023-04-06T20:52:26.764Z,3.43
2023-04-06T20:55:13.128Z,3.00
2023-04-06T20:57:59.379Z,3.83
2023-04-06T21:00:45.874Z,5.30
2023-04-06T21:03:32.423Z,3.83
2023-04-06T21:06:19.159Z,5.00
2023-04-06T21:09:05.883Z,3.67
2023-04-06T21:11:52.753Z,3.70
2023-04-06T21:14:40.083Z,4.17
2023-04-06T21:17:26.822Z,3.47
2023-04-06T21:20:13.189Z,4.87
2023-04-06T21:22:59.755Z,4.00
2023-04-06T21:25:46.211Z,3.30
2023-04-06T21:28:32.404Z,3.87
2023-04-06T21:31:19.869Z,3.80
2023-04-06T21:34:13.543Z,5.07
2023-04-06T21:37:00.153Z,4.13
2023-04-06T21:39:46.674Z,5.10
2023-04-06T21:42:35.156Z,4.90
2023-04-06T21:45:24.570Z,4.77
2023-04-06T21:48:11.240Z,4.60
2023-04-06T21:50:57.395Z,5.10
2023-04-06T21:53:43.825Z,5.00
2023-04-06T21:56:30.394Z,3.97
2023-04-06T21:59:16.863Z,4.53
2023-04-06T22:02:03.237Z,4.50
2023-04-06T22:04:49.926Z,4.83
2023-04-06T22:07:36.419Z,5.10
2023-04-06T22:10:23.485Z,4.40
2023-04-06T22:13:12.117Z,4.40
2023-04-06T22:15:58.691Z,4.47
2023-04-06T22:18:45.372Z,4.13
2023-04-06T22:21:33.108Z,4.57
2023-04-06T22:24:19.757Z,4.13
2023-04-06T22:27:06.638Z,4.60
2023-04-06T22:29:53.307Z,4.63
2023-04-06T22:32:39.592Z,4.47
2023-04-06T22:35:26.219Z,5.00
2023-04-06T22:38:12.992Z,4.40
2023-04-06T22:40:59.535Z,5.23
2023-04-06T22:43:45.902Z,5.17
2023-04-06T22:46:32.289Z,4.83
2023-04-06T22:49:18.829Z,5.70
2023-04-06T22:52:05.341Z,5.23
2023-04-06T22:54:51.977Z,5.33
2023-04-06T22:57:38.510Z,6.10
2023-04-06T23:00:24.714Z,6.30
2023-04-06T23:03:11.416Z,5.47
2023-04-06T23:05:57.830Z,5.23
2023-04-06T23:08:44.182Z,5.43
2023-04-06T23:11:30.659Z,6.03
2023-04-06T23:14:17.658Z,7.03
2023-04-06T23:17:04.716Z,6.57
2023-04-06T23:19:51.498Z,5.83
2023-04-06T23:22:38.668Z,5.70
2023-04-06T23:25:25.447Z,6.03
2023-04-06T23:28:12.002Z,5.80
2023-04-06T23:30:58.374Z,6.03
2023-04-06T23:33:44.681Z,6.37
2023-04-06T23:36:32.064Z,6.27
2023-04-06T23:39:18.498Z,5.63
2023-04-06T23:42:04.944Z,6.40
2023-04-06T23:44:51.156Z,6.03
2023-04-06T23:47:37.594Z,5.90
2023-04-06T23:50:24.171Z,5.67
2023-04-06T23:53:10.518Z,6.17
2023-04-06T23:55:56.809Z,6.30
2023-04-06T23:58:43.721Z,6.33
